Time;durP1;ratioP1;P1;durP2;ratioP2;P2;SDS_P1;SDS_P2;PMS_P1;PMS_P2;Temp;Humidity;BMP_temperature;BMP_pressure;BME280_temperature;BME280_humidity;BME280_pressure;Samples;Min_cycle;Max_cycle;Signal;HPM_P1;HPM_P2
2023/09/06 00:00:12;;;;;;;3.30;3.10;;;14.90;99.90;;;;;;5009466;28;20557;-68
2023/09/06 00:02:39;;;;;;;3.30;3.10;;;14.90;99.90;;;;;;5009586;28;20450;-68
2023/09/06 00:05:06;;;;;;;3.60;3.30;;;14.90;99.90;;;;;;5009388;28;20455;-68
2023/09/06 00:07:34;;;;;;;3.93;3.53;;;14.80;99.90;;;;;;5008689;28;20535;-69
2023/09/06 00:10:01;;;;;;;3.77;3.47;;;14.80;99.90;;;;;;5009420;28;20480;-69
2023/09/06 00:12:29;;;;;;;3.60;3.40;;;14.80;99.90;;;;;;5009564;28;20454;-69
2023/09/06 00:14:56;;;;;;;3.60;3.30;;;14.70;99.90;;;;;;5009460;28;20505;-68
2023/09/06 00:17:22;;;;;;;5.27;4.00;;;14.70;99.90;;;;;;5008475;28;20495;-69
2023/09/06 00:19:49;;;;;;;5.50;4.10;;;14.70;99.90;;;;;;5009129;28;20470;-69
2023/09/06 00:22:18;;;;;;;4.00;3.70;;;14.70;99.90;;;;;;5031263;23;21020;-62
2023/09/06 00:24:46;;;;;;;3.97;3.70;;;14.60;99.90;;;;;;5009386;28;20497;-63
2023/09/06 00:27:14;;;;;;;4.97;4.07;;;14.60;99.90;;;;;;5008536;28;20447;-65
2023/09/06 00:29:41;;;;;;;4.60;4.20;;;14.60;99.90;;;;;;5009160;28;20450;-65
2023/09/06 00:32:08;;;;;;;5.30;4.57;;;14.60;99.90;;;;;;5008732;28;20526;-65
2023/09/06 00:34:34;;;;;;;5.20;4.53;;;14.60;99.90;;;;;;5007854;28;20960;-65
2023/09/06 00:37:03;;;;;;;4.67;4.27;;;14.50;99.90;;;;;;5008501;28;20490;-66
2023/09/06 00:39:30;;;;;;;3.87;3.57;;;14.50;99.90;;;;;;5009311;28;20936;-65
2023/09/06 00:42:00;;;;;;;3.57;3.33;;;14.50;99.90;;;;;;5008886;28;20473;-65
2023/09/06 00:44:27;;;;;;;4.03;3.73;;;14.50;99.90;;;;;;5008956;28;20452;-65
2023/09/06 00:46:54;;;;;;;4.30;4.00;;;14.40;99.90;;;;;;5007994;28;20452;-65
2023/09/06 00:49:21;;;;;;;4.07;3.77;;;14.40;99.90;;;;;;5008381;28;21170;-65
2023/09/06 00:51:47;;;;;;;4.00;3.70;;;14.40;99.90;;;;;;5008684;28;20452;-65
2023/09/06 00:54:14;;;;;;;3.50;3.20;;;14.40;99.90;;;;;;5008680;28;20964;-65
2023/09/06 00:56:41;;;;;;;3.97;3.50;;;14.30;99.90;;;;;;5007782;28;20453;-65
2023/09/06 00:59:12;;;;;;;4.73;4.03;;;14.30;99.90;;;;;;5008589;28;20451;-65
2023/09/06 01:01:39;;;;;;;4.27;3.87;;;14.30;99.90;;;;;;5008517;28;20789;-63
2023/09/06 01:04:06;;;;;;;3.70;3.40;;;14.30;99.90;;;;;;5008925;28;20448;-65
2023/09/06 01:06:36;;;;;;;4.10;3.63;;;14.30;99.90;;;;;;5008088;28;20999;-65
2023/09/06 01:09:05;;;;;;;5.33;4.47;;;14.20;99.90;;;;;;5008320;28;20530;-65
2023/09/06 01:11:37;;;;;;;4.27;3.87;;;14.20;99.90;;;;;;5008439;28;20466;-65
2023/09/06 01:14:03;;;;;;;4.40;4.10;;;14.20;99.90;;;;;;5008375;28;20498;-65
2023/09/06 01:16:34;;;;;;;4.60;3.77;;;14.20;99.90;;;;;;5007765;28;20548;-65
2023/09/06 01:19:01;;;;;;;4.20;3.80;;;14.10;99.90;;;;;;5008350;28;20499;-65
2023/09/06 01:21:36;;;;;;;4.67;3.90;;;14.10;99.90;;;;;;5008539;28;21010;-65
2023/09/06 01:24:06;;;;;;;5.60;3.70;;;14.10;99.90;;;;;;5008400;28;20962;-65
2023/09/06 01:26:34;;;;;;;3.40;3.10;;;14.00;99.90;;;;;;5007555;28;20448;-65
2023/09/06 01:29:01;;;;;;;4.80;4.10;;;14.00;99.90;;;;;;5008688;28;20447;-64
2023/09/06 01:31:28;;;;;;;5.13;4.73;;;14.00;99.90;;;;;;5008487;28;20455;-65
2023/09/06 01:33:55;;;;;;;4.40;4.10;;;14.00;99.90;;;;;;5006605;28;20471;-65
2023/09/06 01:36:22;;;;;;;4.70;4.30;;;14.00;99.90;;;;;;5007567;28;20448;-65
2023/09/06 01:38:51;;;;;;;4.20;3.90;;;14.00;99.90;;;;;;5008406;28;20932;-65
2023/09/06 01:41:19;;;;;;;6.20;4.10;;;14.00;99.90;;;;;;5008457;28;20455;-65
2023/09/06 01:43:46;;;;;;;4.77;4.30;;;13.90;99.90;;;;;;5008293;28;20993;-65
2023/09/06 01:46:13;;;;;;;5.03;4.40;;;13.90;99.90;;;;;;5007465;28;20535;-65
2023/09/06 01:48:40;;;;;;;5.13;4.63;;;13.90;99.90;;;;;;5008206;28;20447;-65
2023/09/06 01:51:08;;;;;;;5.43;4.93;;;13.90;99.90;;;;;;5008001;28;20959;-65
2023/09/06 01:53:35;;;;;;;4.90;4.20;;;13.90;99.90;;;;;;5008077;28;20474;-65
2023/09/06 01:56:02;;;;;;;4.50;4.20;;;13.80;99.90;;;;;;5007549;28;20445;-65
2023/09/06 01:58:32;;;;;;;3.90;3.57;;;13.80;99.90;;;;;;5008332;28;20485;-64
2023/09/06 02:00:59;;;;;;;4.60;4.30;;;13.80;99.90;;;;;;5008157;28;20836;-65
2023/09/06 02:03:27;;;;;;;4.63;4.13;;;13.80;99.90;;;;;;5007985;28;20479;-65
2023/09/06 02:05:53;;;;;;;4.83;4.40;;;13.70;99.90;;;;;;5007726;28;20463;-65
2023/09/06 02:08:21;;;;;;;5.03;4.07;;;13.70;99.90;;;;;;5007856;28;20927;-65
2023/09/06 02:10:48;;;;;;;4.87;3.40;;;13.60;99.90;;;;;;5008103;28;20824;-65
2023/09/06 02:13:14;;;;;;;4.40;4.00;;;13.60;99.90;;;;;;5007907;28;20560;-65
2023/09/06 02:15:43;;;;;;;4.67;4.30;;;13.60;99.90;;;;;;5007877;28;20455;-65
2023/09/06 02:18:15;;;;;;;5.07;3.67;;;13.60;99.90;;;;;;5006928;28;20490;-65
2023/09/06 02:20:42;;;;;;;4.50;4.00;;;13.50;99.90;;;;;;5010883;28;20545;-65
2023/09/06 02:23:09;;;;;;;4.70;4.30;;;13.50;99.90;;;;;;5011384;28;20861;-65
2023/09/06 02:25:35;;;;;;;5.73;4.17;;;13.50;99.90;;;;;;5011418;28;21029;-65
2023/09/06 02:28:04;;;;;;;4.47;4.13;;;13.50;99.90;;;;;;5010627;28;20669;-65
2023/09/06 02:30:31;;;;;;;5.20;4.13;;;13.50;99.90;;;;;;5011173;28;20451;-65
2023/09/06 02:33:00;;;;;;;4.27;3.87;;;13.50;99.90;;;;;;5009470;28;20466;-65
2023/09/06 02:35:27;;;;;;;4.10;3.73;;;13.50;99.90;;;;;;5011084;28;20545;-65
2023/09/06 02:37:53;;;;;;;4.40;3.83;;;13.40;99.90;;;;;;5010316;28;20486;-65
2023/09/06 02:40:20;;;;;;;5.20;4.90;;;13.40;99.90;;;;;;5011010;28;20462;-65
2023/09/06 02:42:51;;;;;;;5.53;5.13;;;13.30;99.90;;;;;;5010863;28;20561;-65
2023/09/06 02:45:18;;;;;;;5.00;4.70;;;13.30;99.90;;;;;;5011215;28;20460;-65
2023/09/06 02:47:49;;;;;;;4.73;4.33;;;13.30;99.90;;;;;;5010429;28;20485;-65
2023/09/06 02:50:18;;;;;;;5.90;5.40;;;13.30;99.90;;;;;;5011336;28;20461;-65
2023/09/06 02:52:46;;;;;;;4.10;3.80;;;13.30;99.90;;;;;;5010963;28;20474;-64
2023/09/06 02:55:13;;;;;;;5.20;4.70;;;13.20;99.90;;;;;;5010845;28;20454;-64
2023/09/06 02:57:41;;;;;;;5.50;5.10;;;13.20;99.90;;;;;;5010148;28;20490;-65
2023/09/06 03:00:25;;;;;;;4.67;4.27;;;13.20;99.90;;;;;;5010653;28;20461;-65
2023/09/06 03:02:53;;;;;;;4.67;4.33;;;13.20;99.90;;;;;;5010530;28;20475;-65
2023/09/06 03:05:22;;;;;;;4.80;4.50;;;13.20;99.90;;;;;;5010642;28;20463;-65
2023/09/06 03:07:49;;;;;;;5.10;4.70;;;13.10;99.90;;;;;;5007275;28;20509;-65
2023/09/06 03:10:19;;;;;;;5.77;5.30;;;13.10;99.90;;;;;;5010586;28;20456;-65
2023/09/06 03:12:47;;;;;;;4.70;4.30;;;13.10;99.90;;;;;;5010509;28;20470;-66
2023/09/06 03:15:15;;;;;;;4.87;4.50;;;13.00;99.90;;;;;;5010549;28;20463;-65
2023/09/06 03:17:46;;;;;;;5.37;4.87;;;13.00;99.90;;;;;;5009605;28;20838;-65
2023/09/06 03:20:22;;;;;;;4.87;4.40;;;12.90;99.90;;;;;;5010340;28;20963;-65
2023/09/06 03:22:51;;;;;;;4.53;3.83;;;12.90;99.90;;;;;;5010113;28;20512;-65
2023/09/06 03:25:18;;;;;;;5.07;4.67;;;12.90;99.90;;;;;;5010311;28;20455;-65
2023/09/06 03:27:45;;;;;;;5.97;5.37;;;12.90;99.90;;;;;;5009549;28;20450;-65
2023/09/06 03:30:15;;;;;;;5.30;4.90;;;12.90;99.90;;;;;;5010066;28;20458;-65
2023/09/06 03:32:43;;;;;;;4.87;4.40;;;12.90;99.90;;;;;;5008181;28;20473;-65
2023/09/06 03:35:10;;;;;;;5.90;5.40;;;12.80;99.90;;;;;;5009946;28;20450;-65
2023/09/06 03:37:37;;;;;;;5.37;4.97;;;12.80;99.90;;;;;;5009536;28;20472;-65
2023/09/06 03:40:25;;;;;;;5.00;4.60;;;12.80;99.90;;;;;;5010216;28;20472;-65
2023/09/06 03:42:53;;;;;;;4.77;4.47;;;12.80;99.90;;;;;;5009008;28;20556;-65
2023/09/06 03:45:21;;;;;;;4.60;4.20;;;12.70;99.90;;;;;;5009794;28;20456;-66
2023/09/06 03:47:48;;;;;;;8.60;5.53;;;12.70;99.90;;;;;;5008972;28;20458;-65
2023/09/06 03:50:16;;;;;;;5.90;5.47;;;12.70;99.90;;;;;;5009718;28;20458;-65
2023/09/06 03:52:43;;;;;;;5.17;4.70;;;12.70;99.90;;;;;;5009632;28;20493;-65
2023/09/06 03:55:12;;;;;;;5.03;4.73;;;12.70;99.90;;;;;;5009646;28;20458;-65
2023/09/06 03:57:39;;;;;;;5.63;5.13;;;12.60;99.90;;;;;;5008922;28;20886;-65
2023/09/06 04:00:24;;;;;;;5.37;4.80;;;12.60;99.90;;;;;;5009715;28;20476;-65
2023/09/06 04:02:53;;;;;;;5.33;4.93;;;12.60;99.90;;;;;;5009551;28;20505;-65
2023/09/06 04:05:25;;;;;;;6.93;6.43;;;12.60;99.90;;;;;;5009731;28;20973;-65
2023/09/06 04:07:54;;;;;;;7.00;6.40;;;12.50;99.90;;;;;;5008821;28;20482;-65
2023/09/06 04:10:23;;;;;;;5.13;4.67;;;12.50;99.90;;;;;;5009397;28;20545;-65
2023/09/06 04:12:53;;;;;;;6.13;5.63;;;12.50;99.90;;;;;;5009363;28;20521;-65
2023/09/06 04:15:21;;;;;;;5.90;5.00;;;12.50;99.90;;;;;;5009372;28;20466;-65
2023/09/06 04:17:50;;;;;;;5.10;4.60;;;12.40;99.90;;;;;;5008455;28;20756;-65
2023/09/06 04:20:21;;;;;;;5.30;4.87;;;12.40;99.90;;;;;;5009004;28;20449;-65
2023/09/06 04:22:48;;;;;;;5.07;4.57;;;12.40;99.90;;;;;;5009037;28;20493;-65
2023/09/06 04:25:18;;;;;;;4.70;4.30;;;12.40;99.90;;;;;;5009255;28;20561;-65
2023/09/06 04:27:47;;;;;;;5.93;4.20;;;12.40;99.90;;;;;;5008233;28;20457;-65
2023/09/06 04:30:16;;;;;;;6.27;5.67;;;12.40;99.90;;;;;;5009265;28;20646;-66
2023/09/06 04:32:45;;;;;;;5.63;5.13;;;12.30;99.90;;;;;;5007470;28;20473;-66
2023/09/06 04:35:14;;;;;;;6.10;5.60;;;12.30;99.90;;;;;;5009269;28;20442;-65
2023/09/06 04:37:40;;;;;;;5.33;4.87;;;12.30;99.90;;;;;;5008322;28;20483;-65
2023/09/06 04:40:11;;;;;;;6.17;5.67;;;12.30;99.90;;;;;;5008682;28;20872;-65
2023/09/06 04:42:39;;;;;;;6.30;5.73;;;12.30;99.90;;;;;;5008242;28;20469;-65
2023/09/06 04:45:09;;;;;;;5.20;4.80;;;12.30;99.90;;;;;;5009041;28;20520;-66
2023/09/06 04:47:36;;;;;;;5.57;5.17;;;12.30;99.90;;;;;;5008251;28;20813;-65
2023/09/06 04:50:03;;;;;;;6.23;5.00;;;12.20;99.90;;;;;;5008716;28;20488;-65
2023/09/06 04:52:30;;;;;;;5.50;4.70;;;12.20;99.90;;;;;;5008816;28;20923;-65
2023/09/06 04:54:57;;;;;;;5.50;5.10;;;12.20;99.90;;;;;;5008755;28;20525;-66
2023/09/06 04:57:25;;;;;;;5.17;4.77;;;12.20;99.90;;;;;;5008281;28;20450;-66
2023/09/06 04:59:53;;;;;;;6.30;5.70;;;12.20;99.90;;;;;;5008799;28;20588;-65
2023/09/06 05:02:21;;;;;;;6.97;5.20;;;12.20;99.90;;;;;;5008533;28;21062;-66
2023/09/06 05:04:48;;;;;;;5.87;5.37;;;12.20;99.90;;;;;;5008527;28;20446;-66
2023/09/06 05:07:15;;;;;;;5.43;4.70;;;12.20;99.90;;;;;;5007824;28;20946;-65
2023/09/06 05:09:41;;;;;;;5.63;5.13;;;12.10;99.90;;;;;;5008388;28;20442;-65
2023/09/06 05:12:08;;;;;;;5.43;5.03;;;12.20;99.90;;;;;;5008390;28;20986;-65
2023/09/06 05:14:35;;;;;;;6.73;6.03;;;12.20;99.90;;;;;;5008422;28;20540;-65
2023/09/06 05:17:02;;;;;;;6.00;5.40;;;12.20;99.90;;;;;;5007983;28;20746;-65
2023/09/06 05:19:30;;;;;;;5.53;5.13;;;12.20;99.90;;;;;;5008448;28;20482;-66
2023/09/06 05:21:57;;;;;;;7.97;5.47;;;12.20;99.90;;;;;;5008462;28;20478;-66
2023/09/06 05:24:24;;;;;;;6.10;4.80;;;12.20;99.90;;;;;;5008453;28;20449;-66
2023/09/06 05:26:51;;;;;;;7.90;5.70;;;12.20;99.90;;;;;;5007880;28;20556;-65
2023/09/06 05:29:18;;;;;;;5.80;5.37;;;12.20;99.90;;;;;;5008403;28;20440;-66
2023/09/06 05:31:45;;;;;;;5.97;5.47;;;12.20;99.90;;;;;;5008319;28;20484;-65
2023/09/06 05:34:12;;;;;;;6.97;4.90;;;12.20;99.90;;;;;;5006541;28;20462;-65
2023/09/06 05:36:40;;;;;;;6.50;6.00;;;12.20;99.90;;;;;;5007670;28;20450;-66
2023/09/06 05:39:07;;;;;;;6.47;5.60;;;12.20;99.90;;;;;;5008123;28;20497;-65
2023/09/06 05:41:34;;;;;;;6.13;5.50;;;12.20;99.90;;;;;;5008091;28;20450;-65
2023/09/06 05:44:01;;;;;;;6.87;6.20;;;12.20;99.90;;;;;;5008130;28;20456;-66
2023/09/06 05:46:28;;;;;;;6.10;5.50;;;12.20;99.90;;;;;;5007733;28;20476;-65
2023/09/06 05:48:54;;;;;;;5.50;5.00;;;12.30;99.90;;;;;;5007765;28;20450;-65
2023/09/06 05:51:21;;;;;;;6.10;5.60;;;12.30;99.90;;;;;;5008277;28;20450;-66
2023/09/06 05:53:49;;;;;;;5.13;4.73;;;12.30;99.90;;;;;;5008003;28;21101;-65
2023/09/06 05:56:16;;;;;;;5.40;5.00;;;12.30;99.90;;;;;;5011185;28;20460;-66
2023/09/06 05:58:43;;;;;;;5.00;4.50;;;12.30;99.90;;;;;;5011791;28;20492;-66
2023/09/06 06:01:12;;;;;;;5.97;5.57;;;12.40;99.90;;;;;;5011749;28;20450;-65
2023/09/06 06:03:39;;;;;;;5.60;5.13;;;12.40;99.90;;;;;;5011631;28;20507;-65
2023/09/06 06:06:10;;;;;;;6.37;5.80;;;12.40;99.90;;;;;;5011030;28;20528;-65
2023/09/06 06:08:38;;;;;;;5.77;5.20;;;12.50;99.90;;;;;;5011904;28;20464;-65
2023/09/06 06:11:06;;;;;;;4.83;4.27;;;12.50;99.90;;;;;;5011921;28;20453;-65
2023/09/06 06:13:33;;;;;;;5.63;5.13;;;12.50;99.90;;;;;;5011667;28;20552;-66
2023/09/06 06:16:00;;;;;;;6.87;5.70;;;12.50;99.90;;;;;;5010779;28;20450;-65
2023/09/06 06:18:27;;;;;;;7.40;6.00;;;12.50;99.90;;;;;;5011648;28;20453;-65
2023/09/06 06:20:55;;;;;;;5.83;5.33;;;12.60;99.90;;;;;;5011421;28;20450;-65
2023/09/06 06:23:22;;;;;;;6.47;5.70;;;12.60;99.90;;;;;;5011120;28;20488;-65
2023/09/06 06:25:49;;;;;;;5.57;5.10;;;12.70;99.90;;;;;;5011202;28;20454;-66
2023/09/06 06:28:17;;;;;;;6.63;5.93;;;12.70;99.90;;;;;;5070296;23;20501;-62
2023/09/06 06:30:44;;;;;;;5.53;5.10;;;12.70;99.90;;;;;;5051678;28;21002;-64
2023/09/06 06:33:10;;;;;;;10.50;5.53;;;12.80;99.90;;;;;;5050432;28;20454;-65
2023/09/06 06:35:38;;;;;;;6.10;5.60;;;12.90;99.90;;;;;;5051259;28;20494;-65
2023/09/06 06:38:05;;;;;;;6.80;6.07;;;13.00;99.90;;;;;;5032644;28;20584;-65
2023/09/06 06:40:36;;;;;;;5.87;5.37;;;13.20;99.90;;;;;;5031037;28;20489;-65
2023/09/06 06:43:03;;;;;;;4.90;4.37;;;13.30;99.90;;;;;;5031372;28;20449;-65
2023/09/06 06:45:31;;;;;;;5.67;5.17;;;13.60;99.90;;;;;;5031101;28;20464;-65
2023/09/06 06:47:58;;;;;;;7.30;5.20;;;13.80;99.90;;;;;;5029960;28;20476;-64
2023/09/06 06:50:25;;;;;;;6.87;5.13;;;14.00;99.90;;;;;;5030596;28;20537;-64
2023/09/06 06:52:52;;;;;;;5.60;5.17;;;14.30;99.90;;;;;;5030644;28;20970;-65
2023/09/06 06:55:19;;;;;;;5.10;4.70;;;14.50;99.90;;;;;;5030435;28;20581;-65
2023/09/06 06:57:46;;;;;;;7.70;5.60;;;14.80;99.90;;;;;;5030017;28;20466;-65
2023/09/06 07:00:17;;;;;;;7.90;7.03;;;15.00;99.90;;;;;;5029222;28;21061;-65
2023/09/06 07:02:46;;;;;;;6.23;5.40;;;15.30;99.90;;;;;;5029166;28;20445;-65
2023/09/06 07:05:13;;;;;;;5.93;5.43;;;15.50;99.90;;;;;;5029778;28;20459;-65
2023/09/06 07:07:40;;;;;;;6.53;4.57;;;15.70;99.90;;;;;;5028946;28;20476;-65
2023/09/06 07:10:08;;;;;;;5.40;4.63;;;15.90;99.90;;;;;;5029761;28;20455;-65
2023/09/06 07:12:36;;;;;;;10.57;6.00;;;16.10;99.90;;;;;;5029100;28;20454;-65
2023/09/06 07:15:03;;;;;;;5.90;5.27;;;16.30;99.90;;;;;;5029799;28;20458;-65
2023/09/06 07:17:30;;;;;;;5.53;5.10;;;16.40;99.90;;;;;;5029021;28;20467;-65
2023/09/06 07:19:58;;;;;;;5.77;5.27;;;16.60;99.90;;;;;;5029822;28;20596;-65
2023/09/06 07:22:25;;;;;;;7.70;6.87;;;16.70;99.90;;;;;;5029311;28;20459;-65
2023/09/06 07:24:52;;;;;;;9.10;7.37;;;16.90;99.90;;;;;;5029818;28;20450;-65
2023/09/06 07:27:20;;;;;;;6.33;5.83;;;17.00;99.90;;;;;;5028878;28;20483;-65
2023/09/06 07:29:47;;;;;;;6.20;5.60;;;17.10;99.90;;;;;;5029692;28;20459;-65
2023/09/06 07:32:14;;;;;;;6.20;5.57;;;17.30;99.90;;;;;;5028689;28;20458;-66
2023/09/06 07:34:41;;;;;;;6.53;5.77;;;17.40;99.90;;;;;;5029698;28;20458;-65
2023/09/06 07:37:10;;;;;;;6.10;5.50;;;17.50;99.90;;;;;;5029111;28;20472;-65
2023/09/06 07:39:36;;;;;;;6.10;5.50;;;17.60;99.90;;;;;;5029712;28;20879;-65
2023/09/06 07:42:05;;;;;;;6.07;5.47;;;17.70;99.90;;;;;;5029086;28;20445;-65
2023/09/06 07:44:32;;;;;;;7.00;6.30;;;17.80;99.90;;;;;;5029374;28;20484;-65
2023/09/06 07:46:59;;;;;;;5.90;5.50;;;18.00;99.90;;;;;;5028649;28;20477;-65
2023/09/06 07:49:30;;;;;;;6.90;6.40;;;18.10;99.90;;;;;;5029658;28;20454;-65
2023/09/06 07:51:57;;;;;;;7.80;7.00;;;18.10;99.90;;;;;;5029305;28;20536;-65
2023/09/06 07:54:25;;;;;;;7.40;6.80;;;18.20;99.90;;;;;;5029365;28;20539;-65
2023/09/06 07:56:52;;;;;;;6.10;5.70;;;18.30;99.90;;;;;;5028870;28;20576;-65
2023/09/06 07:59:22;;;;;;;8.00;7.30;;;18.50;99.90;;;;;;5029222;28;20967;-65
2023/09/06 08:01:49;;;;;;;8.17;7.20;;;18.60;99.90;;;;;;5029369;28;20540;-65
2023/09/06 08:04:18;;;;;;;7.17;6.60;;;18.80;99.90;;;;;;5028718;28;20456;-65
2023/09/06 08:06:46;;;;;;;9.10;8.40;;;18.90;99.90;;;;;;5028358;28;20495;-65
2023/09/06 08:09:13;;;;;;;8.10;7.40;;;19.00;99.90;;;;;;5029217;28;20591;-65
2023/09/06 08:11:41;;;;;;;7.93;7.23;;;19.10;99.90;;;;;;5028847;28;20481;-65
2023/09/06 08:14:08;;;;;;;7.80;7.10;;;19.30;99.90;;;;;;5028863;28;20537;-65
2023/09/06 08:16:35;;;;;;;7.83;7.00;;;19.40;99.90;;;;;;5027805;28;20480;-65
2023/09/06 08:19:03;;;;;;;7.03;6.53;;;19.50;99.90;;;;;;5028596;28;21363;-65
2023/09/06 08:21:30;;;;;;;8.00;7.30;;;19.50;99.90;;;;;;5029176;28;20468;-65
2023/09/06 08:23:57;;;;;;;7.20;6.57;;;19.60;99.90;;;;;;5028591;28;20530;-65
2023/09/06 08:26:23;;;;;;;7.13;6.63;;;19.70;99.90;;;;;;5027516;28;20483;-65
2023/09/06 08:28:52;;;;;;;6.70;6.20;;;19.80;99.90;;;;;;5028593;28;20928;-65
2023/09/06 08:31:18;;;;;;;7.20;6.40;;;19.90;99.90;;;;;;5028675;28;20545;-65
2023/09/06 08:33:45;;;;;;;7.00;6.40;;;20.10;99.90;;;;;;5027450;28;20449;-65
2023/09/06 08:36:12;;;;;;;7.83;7.13;;;20.20;99.90;;;;;;5027990;28;20553;-66
2023/09/06 08:38:40;;;;;;;6.27;5.77;;;20.30;99.90;;;;;;5028309;28;20940;-65
2023/09/06 08:41:08;;;;;;;6.37;5.50;;;20.40;99.90;;;;;;5028509;28;21048;-66
2023/09/06 08:43:37;;;;;;;6.53;5.87;;;20.50;99.90;;;;;;5029386;28;20443;-66
2023/09/06 08:46:18;;;;;;;5.93;5.53;;;20.60;99.90;;;;;;5030627;28;20442;-63
2023/09/06 08:48:48;;;;;;;6.10;5.50;;;20.70;99.90;;;;;;5039571;28;20534;-64
2023/09/06 08:51:16;;;;;;;6.10;5.60;;;20.90;99.90;;;;;;5041449;28;20444;-63
2023/09/06 08:53:44;;;;;;;6.60;6.00;;;21.00;99.90;;;;;;5031213;28;20956;-64
2023/09/06 08:56:12;;;;;;;5.53;5.13;;;21.10;99.90;;;;;;5043513;28;20485;-64
2023/09/06 08:58:40;;;;;;;6.37;5.77;;;21.20;99.90;;;;;;5035995;28;20455;-64
2023/09/06 09:01:08;;;;;;;6.40;5.90;;;21.20;99.90;;;;;;5035951;28;20482;-64
2023/09/06 09:03:35;;;;;;;6.27;5.77;;;21.40;99.90;;;;;;5043026;28;21062;-63
2023/09/06 09:06:06;;;;;;;8.50;7.67;;;21.50;99.90;;;;;;5030410;28;20830;-64
2023/09/06 09:08:33;;;;;;;7.30;6.57;;;21.60;99.90;;;;;;5040769;28;20523;-64
2023/09/06 09:11:11;;;;;;;6.30;5.80;;;21.60;99.90;;;;;;5038803;28;20444;-64
2023/09/06 09:13:38;;;;;;;6.90;5.67;;;21.70;99.90;;;;;;5031555;28;20559;-63
2023/09/06 09:16:10;;;;;;;5.77;5.37;;;21.80;99.90;;;;;;5043231;28;20876;-64
2023/09/06 09:18:38;;;;;;;5.63;5.20;;;21.90;99.90;;;;;;5035397;28;20448;-63
2023/09/06 09:21:05;;;;;;;5.00;4.60;;;22.00;99.90;;;;;;5036231;28;20510;-64
2023/09/06 09:23:32;;;;;;;11.40;6.60;;;22.10;99.90;;;;;;5042677;28;20457;-64
2023/09/06 09:26:00;;;;;;;6.67;6.10;;;22.30;99.90;;;;;;5029655;28;20449;-64
2023/09/06 09:28:33;;;;;;;6.40;5.80;;;22.30;99.90;;;;;;5042080;28;20460;-63
2023/09/06 09:30:59;;;;;;;6.63;5.90;;;22.40;99.90;;;;;;5042596;28;21108;-63
2023/09/06 09:33:30;;;;;;;5.47;4.97;;;22.50;99.90;;;;;;5035992;28;20532;-64
2023/09/06 09:35:57;;;;;;;6.47;5.87;;;22.60;99.90;;;;;;5047018;28;20448;-64
2023/09/06 09:38:24;;;;;;;5.70;5.30;;;22.70;99.90;;;;;;5037462;28;20454;-64
2023/09/06 09:41:05;;;;;;;5.40;5.00;;;22.80;99.90;;;;;;5041749;28;21349;-64
2023/09/06 09:43:32;;;;;;;5.43;4.93;;;22.80;99.90;;;;;;5046749;28;20440;-64
2023/09/06 09:45:59;;;;;;;5.00;4.60;;;22.90;99.90;;;;;;5034182;28;20887;-64
2023/09/06 09:48:31;;;;;;;6.20;5.60;;;23.00;99.90;;;;;;5045443;28;20455;-64
2023/09/06 09:51:00;;;;;;;5.83;5.33;;;23.10;99.90;;;;;;5041684;28;20440;-64
2023/09/06 09:53:29;;;;;;;5.10;4.70;;;23.20;99.90;;;;;;5037085;28;20557;-64
2023/09/06 09:55:57;;;;;;;5.40;5.00;;;23.30;99.90;;;;;;5047199;28;21212;-64
2023/09/06 09:58:25;;;;;;;5.07;4.67;;;23.30;99.90;;;;;;5037085;28;20470;-64
2023/09/06 10:00:54;;;;;;;5.30;4.90;;;23.40;99.90;;;;;;5041298;28;20480;-63
2023/09/06 10:03:22;;;;;;;5.67;5.27;;;23.50;99.80;;;;;;5044405;28;20452;-64
2023/09/06 10:05:52;;;;;;;5.93;5.53;;;23.50;99.10;;;;;;5033570;28;20955;-65
2023/09/06 10:08:19;;;;;;;6.00;5.60;;;23.60;99.40;;;;;;5045581;28;20505;-64
2023/09/06 10:10:46;;;;;;;5.80;5.37;;;23.60;98.70;;;;;;5040068;28;20447;-64
2023/09/06 10:13:15;;;;;;;4.90;4.50;;;23.70;99.00;;;;;;5038332;28;20442;-63
2023/09/06 10:15:44;;;;;;;5.40;4.47;;;23.70;97.70;;;;;;5046971;28;20830;-64
2023/09/06 10:18:11;;;;;;;4.73;4.43;;;23.90;98.00;;;;;;5033914;28;20846;-64
2023/09/06 10:20:39;;;;;;;4.97;4.57;;;24.00;98.30;;;;;;5042984;28;20576;-64
2023/09/06 10:23:08;;;;;;;5.00;4.60;;;24.10;97.40;;;;;;5042259;28;20449;-64
2023/09/06 10:25:40;;;;;;;4.73;4.33;;;24.20;97.50;;;;;;5034821;28;20453;-64
2023/09/06 10:28:07;;;;;;;5.63;5.27;;;24.20;96.60;;;;;;5016806;28;20472;-64
2023/09/06 10:30:43;;;;;;;5.23;4.80;;;24.30;96.40;;;;;;5043015;28;20442;-64
2023/09/06 10:33:11;;;;;;;4.70;4.40;;;24.30;96.60;;;;;;5041642;28;20811;-64
2023/09/06 10:35:43;;;;;;;5.53;5.03;;;24.40;96.70;;;;;;5034543;28;20537;-64
2023/09/06 10:38:14;;;;;;;5.30;4.80;;;24.50;96.90;;;;;;5017559;28;20547;-64
2023/09/06 10:41:10;;;;;;;4.97;4.57;;;24.60;96.50;;;;;;5041174;28;20490;-64
2023/09/06 10:44:06;;;;;;;4.53;4.30;;;24.60;95.50;;;;;;5046243;28;20544;-64
2023/09/06 10:46:33;;;;;;;4.70;4.40;;;24.70;95.40;;;;;;5006418;28;20478;-64
2023/09/06 10:49:20;;;;;;;5.00;4.60;;;24.70;95.00;;;;;;5038762;28;20521;-64
2023/09/06 10:51:57;;;;;;;4.67;4.37;;;24.70;94.40;;;;;;5046320;28;20437;-64
2023/09/06 10:54:26;;;;;;;4.20;3.90;;;24.80;95.30;;;;;;5036034;28;20456;-64
2023/09/06 10:56:59;;;;;;;5.47;5.07;;;24.80;94.20;;;;;;5039120;28;20466;-64
2023/09/06 10:59:28;;;;;;;5.57;4.87;;;24.90;94.00;;;;;;5044399;28;20447;-64
2023/09/06 11:02:14;;;;;;;4.23;3.97;;;25.00;94.40;;;;;;5033337;28;20494;-64
2023/09/06 11:04:41;;;;;;;5.20;4.70;;;25.10;94.40;;;;;;5041582;28;20932;-64
2023/09/06 11:07:10;;;;;;;4.60;4.33;;;25.20;93.90;;;;;;5041038;28;20840;-64
2023/09/06 11:09:43;;;;;;;4.63;4.33;;;25.30;94.40;;;;;;5033972;28;20448;-63
2023/09/06 11:12:11;;;;;;;4.80;4.10;;;25.40;93.30;;;;;;5019855;28;20551;-64
2023/09/06 11:14:38;;;;;;;4.43;4.13;;;25.40;94.00;;;;;;5041687;28;20453;-64
2023/09/06 11:17:05;;;;;;;4.70;4.30;;;25.60;92.90;;;;;;5040170;28;20469;-64
2023/09/06 11:19:34;;;;;;;4.50;4.20;;;25.60;92.60;;;;;;5034430;28;21205;-64
2023/09/06 11:22:06;;;;;;;4.80;4.30;;;25.80;92.20;;;;;;5045640;28;20491;-64
2023/09/06 11:24:34;;;;;;;3.70;3.47;;;25.90;91.30;;;;;;5036386;28;20451;-64
2023/09/06 11:27:14;;;;;;;4.37;3.97;;;26.00;91.40;;;;;;5037169;28;20479;-64
2023/09/06 11:29:42;;;;;;;5.20;4.80;;;26.10;91.10;;;;;;5046032;28;20485;-64
2023/09/06 11:32:11;;;;;;;3.67;3.47;;;26.10;91.20;;;;;;5016962;28;20456;-64
2023/09/06 11:34:45;;;;;;;5.00;4.60;;;26.20;90.60;;;;;;5041291;28;20460;-64
2023/09/06 11:37:15;;;;;;;4.30;4.03;;;26.40;90.70;;;;;;5041117;28;20559;-64
2023/09/06 11:39:43;;;;;;;7.20;4.70;;;26.50;90.70;;;;;;5032564;28;20511;-64
2023/09/06 11:42:14;;;;;;;4.53;4.23;;;26.50;90.90;;;;;;5044827;28;20489;-63
2023/09/06 11:44:47;;;;;;;5.07;4.73;;;26.60;90.10;;;;;;5037076;28;20447;-64
2023/09/06 11:47:16;;;;;;;5.00;4.60;;;26.80;90.60;;;;;;5035448;28;20499;-64
2023/09/06 11:49:45;;;;;;;5.13;4.67;;;26.80;89.30;;;;;;5045548;28;20956;-64
2023/09/06 11:52:15;;;;;;;5.10;4.80;;;26.90;88.40;;;;;;5031925;28;20446;-64
2023/09/06 11:54:44;;;;;;;6.43;4.53;;;26.90;87.20;;;;;;5040376;28;20450;-64
2023/09/06 11:57:23;;;;;;;4.50;4.30;;;27.00;88.00;;;;;;5040074;28;20471;-64
2023/09/06 11:59:57;;;;;;;5.77;4.37;;;27.00;86.70;;;;;;5032480;28;20562;-64
2023/09/06 12:02:27;;;;;;;4.93;4.50;;;27.10;85.80;;;;;;5042806;28;20491;-64
2023/09/06 12:05:00;;;;;;;4.53;4.23;;;27.20;85.40;;;;;;5038548;28;20451;-64
2023/09/06 12:07:27;;;;;;;4.90;4.50;;;27.30;85.70;;;;;;5033304;28;20481;-64
2023/09/06 12:09:57;;;;;;;4.83;4.43;;;27.40;85.00;;;;;;5045010;28;20545;-64
2023/09/06 12:12:25;;;;;;;4.97;4.57;;;27.50;87.60;;;;;;5034425;28;20899;-64
2023/09/06 12:14:53;;;;;;;4.37;4.07;;;27.70;87.20;;;;;;5038841;28;20510;-64
2023/09/06 12:17:20;;;;;;;5.50;5.10;;;27.70;84.70;;;;;;5041318;28;21119;-65
2023/09/06 12:19:47;;;;;;;4.50;4.20;;;27.90;85.50;;;;;;5031932;28;20539;-64
2023/09/06 12:22:17;;;;;;;4.50;4.10;;;28.00;86.00;;;;;;5043594;28;20484;-64
2023/09/06 12:24:46;;;;;;;4.27;3.97;;;28.10;86.00;;;;;;5036859;28;20456;-64
2023/09/06 12:27:15;;;;;;;6.27;5.77;;;28.20;82.80;;;;;;5034759;28;20868;-64
2023/09/06 12:29:44;;;;;;;4.33;4.03;;;28.40;84.10;;;;;;5044946;28;20942;-64
2023/09/06 12:32:11;;;;;;;4.73;4.43;;;28.60;83.20;;;;;;5032057;28;20831;-64
2023/09/06 12:34:37;;;;;;;4.23;3.93;;;28.80;82.50;;;;;;5040457;28;20481;-65
2023/09/06 12:37:04;;;;;;;4.10;3.83;;;28.90;79.60;;;;;;5038687;28;20564;-64
2023/09/06 12:39:31;;;;;;;3.80;3.60;;;29.10;80.30;;;;;;5033072;28;20887;-64
2023/09/06 12:41:58;;;;;;;5.23;4.77;;;29.20;80.80;;;;;;5044413;28;20520;-64
2023/09/06 12:44:25;;;;;;;4.30;4.00;;;29.30;81.70;;;;;;5034044;28;20440;-64
2023/09/06 12:46:53;;;;;;;5.03;4.47;;;29.50;82.20;;;;;;5037027;28;20480;-64
2023/09/06 12:49:20;;;;;;;5.30;4.77;;;29.60;79.50;;;;;;5041497;28;20455;-64
2023/09/06 12:51:48;;;;;;;4.30;4.00;;;29.70;76.40;;;;;;5030964;28;20439;-64